sensor_id;sensor_type;location;lat;lon;timestamp;pressure;altitude;pressure_sealevel;temperature;humidity
59104;BME280;51449;51.676;5.812;2022-09-09T00:01:52;100720.19;;;15.86;78.75
59104;BME280;51449;51.676;5.812;2022-09-09T00:04:37;100719.38;;;15.86;78.62
59104;BME280;51449;51.676;5.812;2022-09-09T00:12:57;100713.28;;;15.76;78.20
59104;BME280;51449;51.676;5.812;2022-09-09T00:15:26;100717.22;;;15.75;78.18
59104;BME280;51449;51.676;5.812;2022-09-09T00:23:25;100715.91;;;15.69;77.95
59104;BME280;51449;51.676;5.812;2022-09-09T00:29:03;100696.81;;;15.68;78.11
59104;BME280;51449;51.676;5.812;2022-09-09T00:31:31;100706.69;;;15.65;77.92
59104;BME280;51449;51.676;5.812;2022-09-09T00:33:55;100705.91;;;15.65;77.89
59104;BME280;51449;51.676;5.812;2022-09-09T00:36:26;100703.50;;;15.63;77.80
59104;BME280;51449;51.676;5.812;2022-09-09T00:38:59;100706.22;;;15.59;77.90
59104;BME280;51449;51.676;5.812;2022-09-09T00:44:46;100701.34;;;15.53;77.92
59104;BME280;51449;51.676;5.812;2022-09-09T00:47:50;100696.88;;;15.48;78.03
59104;BME280;51449;51.676;5.812;2022-09-09T00:56:16;100695.91;;;15.37;78.17
59104;BME280;51449;51.676;5.812;2022-09-09T00:59:55;100706.94;;;15.33;78.34
59104;BME280;51449;51.676;5.812;2022-09-09T01:01:49;100699.34;;;15.30;78.11
59104;BME280;51449;51.676;5.812;2022-09-09T01:04:34;100695.41;;;15.31;78.27
59104;BME280;51449;51.676;5.812;2022-09-09T01:07:18;100693.81;;;15.30;78.41
59104;BME280;51449;51.676;5.812;2022-09-09T01:10:00;100692.56;;;15.28;78.38
59104;BME280;51449;51.676;5.812;2022-09-09T01:12:51;100686.59;;;15.26;78.70
59104;BME280;51449;51.676;5.812;2022-09-09T01:15:34;100683.38;;;15.24;78.41
59104;BME280;51449;51.676;5.812;2022-09-09T01:18:17;100686.53;;;15.22;78.74
59104;BME280;51449;51.676;5.812;2022-09-09T01:24:30;100675.00;;;15.20;78.61
59104;BME280;51449;51.676;5.812;2022-09-09T01:27:04;100676.53;;;15.17;78.85
59104;BME280;51449;51.676;5.812;2022-09-09T01:29:29;100681.28;;;15.17;78.75
59104;BME280;51449;51.676;5.812;2022-09-09T01:31:59;100675.66;;;15.13;78.75
59104;BME280;51449;51.676;5.812;2022-09-09T01:34:31;100676.75;;;15.09;79.01
59104;BME280;51449;51.676;5.812;2022-09-09T01:37:10;100681.47;;;15.05;79.17
59104;BME280;51449;51.676;5.812;2022-09-09T01:39:36;100680.59;;;15.01;79.27
59104;BME280;51449;51.676;5.812;2022-09-09T01:42:06;100681.31;;;14.97;79.86
59104;BME280;51449;51.676;5.812;2022-09-09T01:44:30;100681.69;;;14.96;80.06
59104;BME280;51449;51.676;5.812;2022-09-09T01:46:54;100680.44;;;14.93;80.17
59104;BME280;51449;51.676;5.812;2022-09-09T01:49:17;100679.25;;;14.94;80.58
59104;BME280;51449;51.676;5.812;2022-09-09T01:51:41;100679.66;;;14.93;80.83
59104;BME280;51449;51.676;5.812;2022-09-09T01:54:07;100673.31;;;14.92;81.12
59104;BME280;51449;51.676;5.812;2022-09-09T02:00:00;100676.13;;;14.96;80.60
59104;BME280;51449;51.676;5.812;2022-09-09T02:06:05;100664.25;;;14.95;81.09
59104;BME280;51449;51.676;5.812;2022-09-09T02:08:50;100670.16;;;14.94;81.13
59104;BME280;51449;51.676;5.812;2022-09-09T02:11:20;100662.63;;;14.94;80.97
59104;BME280;51449;51.676;5.812;2022-09-09T02:14:12;100659.13;;;14.97;80.82
59104;BME280;51449;51.676;5.812;2022-09-09T02:16:44;100658.31;;;14.97;80.72
59104;BME280;51449;51.676;5.812;2022-09-09T02:19:16;100662.69;;;14.98;80.82
59104;BME280;51449;51.676;5.812;2022-09-09T02:21:57;100658.25;;;14.93;81.32
59104;BME280;51449;51.676;5.812;2022-09-09T02:24:22;100656.28;;;14.94;81.23
59104;BME280;51449;51.676;5.812;2022-09-09T02:26:54;100654.72;;;14.96;81.11
59104;BME280;51449;51.676;5.812;2022-09-09T02:29:26;100653.59;;;14.97;81.11
59104;BME280;51449;51.676;5.812;2022-09-09T02:31:57;100661.50;;;14.99;81.06
59104;BME280;51449;51.676;5.812;2022-09-09T02:34:29;100648.88;;;15.02;80.93
59104;BME280;51449;51.676;5.812;2022-09-09T02:36:57;100656.50;;;15.05;80.90
59104;BME280;51449;51.676;5.812;2022-09-09T02:39:22;100659.66;;;15.07;80.82
59104;BME280;51449;51.676;5.812;2022-09-09T02:41:46;100654.94;;;15.07;80.64
59104;BME280;51449;51.676;5.812;2022-09-09T02:44:17;100649.81;;;15.09;80.80
59104;BME280;51449;51.676;5.812;2022-09-09T02:47:04;100656.97;;;15.10;80.65
59104;BME280;51449;51.676;5.812;2022-09-09T02:55:17;100656.09;;;15.06;80.82
59104;BME280;51449;51.676;5.812;2022-09-09T02:57:45;100660.41;;;15.04;80.59
59104;BME280;51449;51.676;5.812;2022-09-09T03:00:11;100664.72;;;15.01;80.81
59104;BME280;51449;51.676;5.812;2022-09-09T03:02:34;100667.84;;;14.99;80.92
59104;BME280;51449;51.676;5.812;2022-09-09T03:04:59;100665.91;;;15.00;80.82
59104;BME280;51449;51.676;5.812;2022-09-09T03:07:21;100665.91;;;15.00;80.96
59104;BME280;51449;51.676;5.812;2022-09-09T03:09:45;100663.13;;;15.00;80.98
59104;BME280;51449;51.676;5.812;2022-09-09T03:12:07;100659.19;;;15.01;81.05
59104;BME280;51449;51.676;5.812;2022-09-09T03:14:29;100667.94;;;15.03;80.95
59104;BME280;51449;51.676;5.812;2022-09-09T03:16:52;100669.19;;;15.06;80.69
59104;BME280;51449;51.676;5.812;2022-09-09T03:19:15;100670.34;;;15.05;80.85
59104;BME280;51449;51.676;5.812;2022-09-09T03:21:37;100658.44;;;15.04;80.92
59104;BME280;51449;51.676;5.812;2022-09-09T03:24:00;100662.03;;;15.05;80.89
59104;BME280;51449;51.676;5.812;2022-09-09T03:26:25;100660.06;;;15.05;80.86
59104;BME280;51449;51.676;5.812;2022-09-09T03:28:47;100660.84;;;15.06;81.07
59104;BME280;51449;51.676;5.812;2022-09-09T03:31:12;100658.88;;;15.06;80.99
59104;BME280;51449;51.676;5.812;2022-09-09T03:33:38;100662.44;;;15.07;80.95
59104;BME280;51449;51.676;5.812;2022-09-09T03:36:05;100662.44;;;15.07;81.23
59104;BME280;51449;51.676;5.812;2022-09-09T03:38:28;100657.72;;;15.07;81.02
59104;BME280;51449;51.676;5.812;2022-09-09T03:40:52;100667.28;;;15.10;81.35
59104;BME280;51449;51.676;5.812;2022-09-09T03:43:19;100658.56;;;15.11;81.28
59104;BME280;51449;51.676;5.812;2022-09-09T03:45:46;100663.81;;;15.16;81.42
59104;BME280;51449;51.676;5.812;2022-09-09T03:48:09;100666.66;;;15.20;81.26
59104;BME280;51449;51.676;5.812;2022-09-09T03:50:33;100669.09;;;15.22;81.44
59104;BME280;51449;51.676;5.812;2022-09-09T03:52:55;100671.47;;;15.23;81.51
59104;BME280;51449;51.676;5.812;2022-09-09T03:55:18;100662.78;;;15.25;81.46
59104;BME280;51449;51.676;5.812;2022-09-09T03:57:40;100666.78;;;15.27;81.79
59104;BME280;51449;51.676;5.812;2022-09-09T04:00:04;100662.84;;;15.28;81.69
59104;BME280;51449;51.676;5.812;2022-09-09T04:02:36;100670.00;;;15.29;81.55
59104;BME280;51449;51.676;5.812;2022-09-09T04:04:58;100664.06;;;15.31;81.66
59104;BME280;51449;51.676;5.812;2022-09-09T04:07:21;100658.16;;;15.32;81.68
59104;BME280;51449;51.676;5.812;2022-09-09T04:09:43;100655.81;;;15.34;81.78
59104;BME280;51449;51.676;5.812;2022-09-09T04:12:05;100670.94;;;15.37;81.92
59104;BME280;51449;51.676;5.812;2022-09-09T04:14:30;100657.84;;;15.37;81.76
59104;BME280;51449;51.676;5.812;2022-09-09T04:16:52;100665.81;;;15.39;81.67
59104;BME280;51449;51.676;5.812;2022-09-09T04:19:14;100654.31;;;15.40;82.16
59104;BME280;51449;51.676;5.812;2022-09-09T04:21:38;100651.19;;;15.42;81.85
59104;BME280;51449;51.676;5.812;2022-09-09T04:24:01;100647.59;;;15.41;82.33
59104;BME280;51449;51.676;5.812;2022-09-09T04:26:23;100645.63;;;15.42;82.11
59104;BME280;51449;51.676;5.812;2022-09-09T04:28:46;100640.50;;;15.44;82.42
59104;BME280;51449;51.676;5.812;2022-09-09T04:31:21;100640.13;;;15.46;82.40
59104;BME280;51449;51.676;5.812;2022-09-09T04:33:49;100646.84;;;15.45;82.61
59104;BME280;51449;51.676;5.812;2022-09-09T04:36:12;100645.28;;;15.44;83.08
59104;BME280;51449;51.676;5.812;2022-09-09T04:38:34;100635.75;;;15.45;83.30
59104;BME280;51449;51.676;5.812;2022-09-09T04:40:58;100640.13;;;15.46;83.29
59104;BME280;51449;51.676;5.812;2022-09-09T04:43:21;100636.63;;;15.49;83.00
59104;BME280;51449;51.676;5.812;2022-09-09T04:45:47;100642.19;;;15.49;83.20
59104;BME280;51449;51.676;5.812;2022-09-09T04:48:10;100639.81;;;15.51;83.37
59104;BME280;51449;51.676;5.812;2022-09-09T04:50:32;100639.44;;;15.52;83.52
59104;BME280;51449;51.676;5.812;2022-09-09T04:52:55;100639.09;;;15.54;83.51
59104;BME280;51449;51.676;5.812;2022-09-09T04:55:16;100636.31;;;15.54;83.66
59104;BME280;51449;51.676;5.812;2022-09-09T04:57:39;100630.75;;;15.54;83.88
59104;BME280;51449;51.676;5.812;2022-09-09T05:00:05;100627.97;;;15.54;84.05
59104;BME280;51449;51.676;5.812;2022-09-09T05:02:32;100629.13;;;15.53;84.07
59104;BME280;51449;51.676;5.812;2022-09-09T05:04:54;100637.47;;;15.53;84.08
59104;BME280;51449;51.676;5.812;2022-09-09T05:07:17;100627.53;;;15.52;84.02
59104;BME280;51449;51.676;5.812;2022-09-09T05:09:40;100626.75;;;15.51;84.09
59104;BME280;51449;51.676;5.812;2022-09-09T05:12:02;100629.13;;;15.53;83.79
59104;BME280;51449;51.676;5.812;2022-09-09T05:14:28;100634.69;;;15.53;84.15
59104;BME280;51449;51.676;5.812;2022-09-09T05:16:53;100631.13;;;15.52;84.16
59104;BME280;51449;51.676;5.812;2022-09-09T05:19:16;100632.72;;;15.53;84.38
59104;BME280;51449;51.676;5.812;2022-09-09T05:21:42;100634.75;;;15.56;84.04
59104;BME280;51449;51.676;5.812;2022-09-09T05:24:07;100621.66;;;15.57;84.29
59104;BME280;51449;51.676;5.812;2022-09-09T05:26:29;100632.41;;;15.58;84.16
59104;BME280;51449;51.676;5.812;2022-09-09T05:28:52;100624.88;;;15.59;84.35
59104;BME280;51449;51.676;5.812;2022-09-09T05:31:16;100623.69;;;15.60;84.47
59104;BME280;51449;51.676;5.812;2022-09-09T05:33:44;100626.91;;;15.62;84.38
59104;BME280;51449;51.676;5.812;2022-09-09T05:36:16;100629.34;;;15.67;84.44
59104;BME280;51449;51.676;5.812;2022-09-09T05:38:41;100621.03;;;15.67;84.54
59104;BME280;51449;51.676;5.812;2022-09-09T05:41:05;100623.09;;;15.70;84.65
59104;BME280;51449;51.676;5.812;2022-09-09T05:43:27;100623.91;;;15.71;84.56
59104;BME280;51449;51.676;5.812;2022-09-09T05:46:01;100628.72;;;15.74;84.69
59104;BME280;51449;51.676;5.812;2022-09-09T05:48:43;100627.16;;;15.76;84.56
59104;BME280;51449;51.676;5.812;2022-09-09T05:51:11;100622.78;;;15.75;84.88
59104;BME280;51449;51.676;5.812;2022-09-09T05:53:36;100625.97;;;15.77;85.02
59104;BME280;51449;51.676;5.812;2022-09-09T05:56:10;100631.59;;;15.81;84.65
59104;BME280;51449;51.676;5.812;2022-09-09T05:58:38;100630.41;;;15.82;84.59
59104;BME280;51449;51.676;5.812;2022-09-09T06:01:08;100632.38;;;15.81;84.74
59104;BME280;51449;51.676;5.812;2022-09-09T06:03:37;100628.41;;;15.82;84.59
59104;BME280;51449;51.676;5.812;2022-09-09T06:06:03;100637.63;;;15.87;84.47
59104;BME280;51449;51.676;5.812;2022-09-09T06:08:27;100639.25;;;15.88;84.23
59104;BME280;51449;51.676;5.812;2022-09-09T06:10:50;100636.47;;;15.88;84.43
59104;BME280;51449;51.676;5.812;2022-09-09T06:13:11;100637.63;;;15.87;84.34
59104;BME280;51449;51.676;5.812;2022-09-09T06:15:34;100636.47;;;15.88;84.43
59104;BME280;51449;51.676;5.812;2022-09-09T06:17:57;100641.69;;;15.93;84.26
59104;BME280;51449;51.676;5.812;2022-09-09T06:20:19;100645.69;;;15.95;84.24
59104;BME280;51449;51.676;5.812;2022-09-09T06:22:41;100649.69;;;15.98;84.18
59104;BME280;51449;51.676;5.812;2022-09-09T06:25:03;100641.03;;;16.03;84.02
59104;BME280;51449;51.676;5.812;2022-09-09T06:27:27;100645.03;;;16.05;84.16
59104;BME280;51449;51.676;5.812;2022-09-09T06:29:50;100644.28;;;16.09;84.22
59104;BME280;51449;51.676;5.812;2022-09-09T06:32:12;100637.59;;;16.13;84.04
59104;BME280;51449;51.676;5.812;2022-09-09T06:34:34;100642.06;;;16.21;84.04
59104;BME280;51449;51.676;5.812;2022-09-09T06:36:57;100638.66;;;16.32;84.30
59104;BME280;51449;51.676;5.812;2022-09-09T06:39:24;100637.22;;;16.45;84.53
59104;BME280;51449;51.676;5.812;2022-09-09T06:41:47;100637.81;;;16.61;84.08
59104;BME280;51449;51.676;5.812;2022-09-09T06:44:32;100630.06;;;16.78;82.99
59104;BME280;51449;51.676;5.812;2022-09-09T06:46:57;100639.75;;;16.91;82.08
59104;BME280;51449;51.676;5.812;2022-09-09T06:49:20;100641.50;;;17.06;81.55
59104;BME280;51449;51.676;5.812;2022-09-09T06:51:41;100638.41;;;17.15;80.98
59104;BME280;51449;51.676;5.812;2022-09-09T06:54:07;100635.72;;;17.26;80.43
59104;BME280;51449;51.676;5.812;2022-09-09T06:56:33;100636.97;;;17.32;79.88
59104;BME280;51449;51.676;5.812;2022-09-09T06:59:05;100641.41;;;17.37;79.35
59104;BME280;51449;51.676;5.812;2022-09-09T07:01:33;100636.97;;;17.32;79.35
59104;BME280;51449;51.676;5.812;2022-09-09T07:04:00;100640.13;;;17.27;79.19
59104;BME280;51449;51.676;5.812;2022-09-09T07:06:30;100644.13;;;17.29;79.17
59104;BME280;51449;51.676;5.812;2022-09-09T07:09:00;100637.00;;;17.36;79.42
59104;BME280;51449;51.676;5.812;2022-09-09T07:11:29;100634.59;;;17.34;78.82
59104;BME280;51449;51.676;5.812;2022-09-09T07:13:54;100639.03;;;17.39;78.85
59104;BME280;51449;51.676;5.812;2022-09-09T07:16:21;100629.91;;;17.42;78.97
59104;BME280;51449;51.676;5.812;2022-09-09T07:18:51;100618.41;;;17.50;78.65
59104;BME280;51449;51.676;5.812;2022-09-09T07:21:14;100630.44;;;17.62;78.53
59104;BME280;51449;51.676;5.812;2022-09-09T07:23:38;100630.50;;;17.69;78.33
59104;BME280;51449;51.676;5.812;2022-09-09T07:26:00;100632.22;;;17.81;78.13
59104;BME280;51449;51.676;5.812;2022-09-09T07:28:23;100623.91;;;17.88;77.45
59104;BME280;51449;51.676;5.812;2022-09-09T07:31:00;100628.72;;;17.98;76.82
59104;BME280;51449;51.676;5.812;2022-09-09T07:33:25;100624.78;;;18.03;76.30
59104;BME280;51449;51.676;5.812;2022-09-09T07:35:47;100635.50;;;18.01;75.78
59104;BME280;51449;51.676;5.812;2022-09-09T07:38:09;100640.25;;;17.93;75.84
59104;BME280;51449;51.676;5.812;2022-09-09T07:40:33;100635.78;;;17.85;75.96
59104;BME280;51449;51.676;5.812;2022-09-09T07:42:55;100632.22;;;17.84;75.83
59104;BME280;51449;51.676;5.812;2022-09-09T07:45:17;100636.63;;;17.85;75.67
59104;BME280;51449;51.676;5.812;2022-09-09T07:47:39;100631.09;;;17.96;75.68
59104;BME280;51449;51.676;5.812;2022-09-09T07:50:04;100633.56;;;18.08;75.84
59104;BME280;51449;51.676;5.812;2022-09-09T07:52:26;100632.44;;;18.20;74.96
59104;BME280;51449;51.676;5.812;2022-09-09T07:54:52;100640.84;;;18.31;74.24
59104;BME280;51449;51.676;5.812;2022-09-09T07:57:14;100634.13;;;18.43;73.84
59104;BME280;51449;51.676;5.812;2022-09-09T07:59:40;100636.16;;;18.53;73.63
59104;BME280;51449;51.676;5.812;2022-09-09T08:02:02;100635.41;;;18.63;71.79
59104;BME280;51449;51.676;5.812;2022-09-09T08:04:27;100637.06;;;18.78;72.11
59104;BME280;51449;51.676;5.812;2022-09-09T08:06:58;100648.28;;;18.96;72.17
59104;BME280;51449;51.676;5.812;2022-09-09T08:09:25;100647.50;;;19.10;72.02
59104;BME280;51449;51.676;5.812;2022-09-09T08:12:00;100645.53;;;19.07;70.62
59104;BME280;51449;51.676;5.812;2022-09-09T08:14:24;100646.28;;;19.04;70.62
59104;BME280;51449;51.676;5.812;2022-09-09T08:16:48;100643.09;;;18.98;70.64
59104;BME280;51449;51.676;5.812;2022-09-09T08:19:14;100655.03;;;18.92;70.40
59104;BME280;51449;51.676;5.812;2022-09-09T08:21:39;100656.59;;;18.78;69.65
59104;BME280;51449;51.676;5.812;2022-09-09T08:24:02;100653.34;;;18.69;69.88
59104;BME280;51449;51.676;5.812;2022-09-09T08:26:28;100658.13;;;18.65;70.23
59104;BME280;51449;51.676;5.812;2022-09-09T08:28:53;100655.72;;;18.67;70.23
59104;BME280;51449;51.676;5.812;2022-09-09T08:31:27;100656.56;;;18.71;70.51
59104;BME280;51449;51.676;5.812;2022-09-09T08:33:55;100664.13;;;18.71;69.68
59104;BME280;51449;51.676;5.812;2022-09-09T08:36:20;100664.91;;;18.68;69.68
59104;BME280;51449;51.676;5.812;2022-09-09T08:38:47;100658.94;;;18.69;70.22
59104;BME280;51449;51.676;5.812;2022-09-09T08:47:10;100658.13;;;18.72;69.89
59104;BME280;51449;51.676;5.812;2022-09-09T08:50:06;100668.53;;;18.75;69.92
59104;BME280;51449;51.676;5.812;2022-09-09T08:58:09;100658.69;;;19.10;69.37
59104;BME280;51449;51.676;5.812;2022-09-09T09:00:45;100669.84;;;19.14;68.63
59104;BME280;51449;51.676;5.812;2022-09-09T09:03:30;100676.63;;;19.16;68.49
59104;BME280;51449;51.676;5.812;2022-09-09T09:06:06;100668.28;;;19.20;68.36
59104;BME280;51449;51.676;5.812;2022-09-09T09:09:23;100677.81;;;19.19;67.94
59104;BME280;51449;51.676;5.812;2022-09-09T09:11:53;100676.25;;;19.14;67.54
59104;BME280;51449;51.676;5.812;2022-09-09T09:14:30;100677.44;;;19.13;68.22
59104;BME280;51449;51.676;5.812;2022-09-09T09:17:01;100669.06;;;19.17;67.63
59104;BME280;51449;51.676;5.812;2022-09-09T09:19:28;100669.47;;;19.26;67.76
59104;BME280;51449;51.676;5.812;2022-09-09T09:22:17;100671.06;;;19.31;66.85
59104;BME280;51449;51.676;5.812;2022-09-09T09:24:53;100669.88;;;19.32;67.04
59104;BME280;51449;51.676;5.812;2022-09-09T09:27:45;100681.06;;;19.32;66.83
59104;BME280;51449;51.676;5.812;2022-09-09T09:30:22;100677.88;;;19.30;67.13
59104;BME280;51449;51.676;5.812;2022-09-09T09:33:03;100677.84;;;19.26;67.41
59104;BME280;51449;51.676;5.812;2022-09-09T09:35:30;100673.06;;;19.19;67.11
59104;BME280;51449;51.676;5.812;2022-09-09T09:37:55;100680.22;;;19.10;66.99
59104;BME280;51449;51.676;5.812;2022-09-09T09:40:54;100674.59;;;18.99;66.76
59104;BME280;51449;51.676;5.812;2022-09-09T09:43:34;100676.16;;;18.86;66.94
59104;BME280;51449;51.676;5.812;2022-09-09T09:46:04;100684.94;;;18.80;67.60
59104;BME280;51449;51.676;5.812;2022-09-09T09:48:39;100679.34;;;18.80;67.98
59104;BME280;51449;51.676;5.812;2022-09-09T09:51:09;100680.13;;;18.85;68.10
59104;BME280;51449;51.676;5.812;2022-09-09T09:53:37;100675.00;;;18.94;68.47
59104;BME280;51449;51.676;5.812;2022-09-09T09:58:30;100678.59;;;18.98;67.54
59104;BME280;51449;51.676;5.812;2022-09-09T10:00:56;100680.56;;;18.94;66.85
59104;BME280;51449;51.676;5.812;2022-09-09T10:03:26;100675.75;;;18.87;66.78
59104;BME280;51449;51.676;5.812;2022-09-09T10:05:55;100684.13;;;18.84;67.34
59104;BME280;51449;51.676;5.812;2022-09-09T10:08:18;100680.94;;;18.81;66.97
59104;BME280;51449;51.676;5.812;2022-09-09T10:19:35;100674.16;;;18.79;67.09
59104;BME280;51449;51.676;5.812;2022-09-09T10:22:28;100671.38;;;18.83;67.46
59104;BME280;51449;51.676;5.812;2022-09-09T10:33:51;100668.25;;;19.16;67.53
59104;BME280;51449;51.676;5.812;2022-09-09T10:36:20;100677.84;;;19.22;66.78
59104;BME280;51449;51.676;5.812;2022-09-09T10:38:53;100688.22;;;19.22;66.68
59104;BME280;51449;51.676;5.812;2022-09-09T10:41:25;100688.63;;;19.17;66.63
59104;BME280;51449;51.676;5.812;2022-09-09T10:46:50;100681.38;;;18.98;67.09
59104;BME280;51449;51.676;5.812;2022-09-09T10:53:02;100677.75;;;18.83;66.80
59104;BME280;51449;51.676;5.812;2022-09-09T10:55:40;100683.34;;;18.83;67.12
59104;BME280;51449;51.676;5.812;2022-09-09T10:58:05;100682.56;;;18.83;67.50
59104;BME280;51449;51.676;5.812;2022-09-09T11:00:40;100692.09;;;18.81;67.97
59104;BME280;51449;51.676;5.812;2022-09-09T11:03:14;100692.47;;;18.73;68.51
59104;BME280;51449;51.676;5.812;2022-09-09T11:05:43;100702.75;;;18.61;70.16
59104;BME280;51449;51.676;5.812;2022-09-09T11:08:22;100697.91;;;18.48;71.10
59104;BME280;51449;51.676;5.812;2022-09-09T11:11:15;100689.91;;;18.39;71.92
59104;BME280;51449;51.676;5.812;2022-09-09T11:13:44;100699.78;;;18.26;72.56
59104;BME280;51449;51.676;5.812;2022-09-09T11:18:48;100701.31;;;18.12;73.88
59104;BME280;51449;51.676;5.812;2022-09-09T11:21:23;100704.06;;;18.09;74.74
59104;BME280;51449;51.676;5.812;2022-09-09T11:24:10;100702.84;;;18.03;74.70
59104;BME280;51449;51.676;5.812;2022-09-09T11:27:14;100700.41;;;18.01;76.22
59104;BME280;51449;51.676;5.812;2022-09-09T11:41:51;100690.28;;;18.37;77.44
59104;BME280;51449;51.676;5.812;2022-09-09T11:44:28;100691.94;;;18.49;77.24
59104;BME280;51449;51.676;5.812;2022-09-09T11:46:52;100693.59;;;18.61;77.42
59104;BME280;51449;51.676;5.812;2022-09-09T11:49:40;100696.84;;;18.74;76.84
59104;BME280;51449;51.676;5.812;2022-09-09T11:54:57;100687.00;;;19.09;76.42
59104;BME280;51449;51.676;5.812;2022-09-09T11:57:35;100681.84;;;19.25;76.28
59104;BME280;51449;51.676;5.812;2022-09-09T11:59:58;100686.66;;;19.39;76.30
59104;BME280;51449;51.676;5.812;2022-09-09T12:02:26;100681.44;;;19.48;75.63
59104;BME280;51449;51.676;5.812;2022-09-09T12:05:09;100677.47;;;19.53;74.01
59104;BME280;51449;51.676;5.812;2022-09-09T12:07:39;100683.47;;;19.51;73.58
59104;BME280;51449;51.676;5.812;2022-09-09T12:12:54;100671.50;;;19.36;73.12
59104;BME280;51449;51.676;5.812;2022-09-09T12:15:24;100678.66;;;19.27;73.15
59104;BME280;51449;51.676;5.812;2022-09-09T12:17:52;100676.63;;;19.16;73.29
59104;BME280;51449;51.676;5.812;2022-09-09T12:23:16;100673.81;;;19.06;73.09
59104;BME280;51449;51.676;5.812;2022-09-09T12:36:58;100676.88;;;18.72;74.37
59104;BME280;51449;51.676;5.812;2022-09-09T12:39:41;100672.94;;;18.80;74.68
59104;BME280;51449;51.676;5.812;2022-09-09T12:42:19;100666.63;;;18.94;74.52
59104;BME280;51449;51.676;5.812;2022-09-09T12:45:16;100672.66;;;19.17;74.58
59104;BME280;51449;51.676;5.812;2022-09-09T12:47:43;100656.69;;;19.29;73.93
59104;BME280;51449;51.676;5.812;2022-09-09T12:50:25;100667.50;;;19.52;73.08
59104;BME280;51449;51.676;5.812;2022-09-09T12:52:51;100664.69;;;19.62;72.96
59104;BME280;51449;51.676;5.812;2022-09-09T12:55:19;100665.50;;;19.70;71.70
59104;BME280;51449;51.676;5.812;2022-09-09T12:57:48;100656.34;;;19.70;71.07
59104;BME280;51449;51.676;5.812;2022-09-09T13:00:15;100658.72;;;19.67;71.25
59104;BME280;51449;51.676;5.812;2022-09-09T13:02:47;100660.34;;;19.69;71.25
59104;BME280;51449;51.676;5.812;2022-09-09T13:05:17;100657.13;;;19.74;71.58
59104;BME280;51449;51.676;5.812;2022-09-09T13:07:42;100655.94;;;19.75;71.45
59104;BME280;51449;51.676;5.812;2022-09-09T13:10:04;100646.34;;;19.76;70.83
59104;BME280;51449;51.676;5.812;2022-09-09T13:12:28;100649.16;;;19.76;70.99
59104;BME280;51449;51.676;5.812;2022-09-09T13:14:53;100644.34;;;19.80;71.23
59104;BME280;51449;51.676;5.812;2022-09-09T13:17:21;100639.56;;;19.80;70.62
59104;BME280;51449;51.676;5.812;2022-09-09T13:19:51;100645.16;;;19.80;70.94
59104;BME280;51449;51.676;5.812;2022-09-09T13:25:17;100642.75;;;19.72;70.48
59104;BME280;51449;51.676;5.812;2022-09-09T13:27:58;100636.75;;;19.70;70.43
59104;BME280;51449;51.676;5.812;2022-09-09T13:30:26;100637.53;;;19.63;70.24
59104;BME280;51449;51.676;5.812;2022-09-09T13:35:25;100640.75;;;19.47;70.82
59104;BME280;51449;51.676;5.812;2022-09-09T13:37:47;100643.53;;;19.40;71.11
59104;BME280;51449;51.676;5.812;2022-09-09T13:40:18;100645.53;;;19.32;71.81
59104;BME280;51449;51.676;5.812;2022-09-09T13:42:44;100644.34;;;19.22;72.27
59104;BME280;51449;51.676;5.812;2022-09-09T13:45:16;100641.50;;;19.08;72.23
59104;BME280;51449;51.676;5.812;2022-09-09T13:47:41;100646.28;;;18.93;73.16
59104;BME280;51449;51.676;5.812;2022-09-09T13:52:45;100630.22;;;18.65;73.92
59104;BME280;51449;51.676;5.812;2022-09-09T13:55:09;100604.69;;;18.56;75.41
59104;BME280;51449;51.676;5.812;2022-09-09T13:57:31;100646.06;;;18.39;76.01
59104;BME280;51449;51.676;5.812;2022-09-09T13:59:53;100635.28;;;18.34;76.42
59104;BME280;51449;51.676;5.812;2022-09-09T14:02:26;100629.38;;;18.47;76.73
59104;BME280;51449;51.676;5.812;2022-09-09T14:04:48;100633.44;;;18.74;76.75
59104;BME280;51449;51.676;5.812;2022-09-09T14:07:14;100630.72;;;18.96;77.26
59104;BME280;51449;51.676;5.812;2022-09-09T14:09:38;100635.13;;;19.18;76.90
59104;BME280;51449;51.676;5.812;2022-09-09T14:12:01;100626.38;;;19.41;76.76
59104;BME280;51449;51.676;5.812;2022-09-09T14:14:24;100622.00;;;19.51;75.58
59104;BME280;51449;51.676;5.812;2022-09-09T14:16:47;100619.56;;;19.60;75.67
59104;BME280;51449;51.676;5.812;2022-09-09T14:19:09;100627.97;;;19.78;75.71
59104;BME280;51449;51.676;5.812;2022-09-09T14:21:31;100624.75;;;19.87;75.87
59104;BME280;51449;51.676;5.812;2022-09-09T14:23:54;100625.94;;;19.89;76.26
59104;BME280;51449;51.676;5.812;2022-09-09T14:26:16;100631.16;;;19.95;75.78
59104;BME280;51449;51.676;5.812;2022-09-09T14:28:40;100625.53;;;20.05;75.40
59104;BME280;51449;51.676;5.812;2022-09-09T14:31:18;100625.94;;;20.00;74.01
59104;BME280;51449;51.676;5.812;2022-09-09T14:33:40;100623.97;;;19.97;73.92
59104;BME280;51449;51.676;5.812;2022-09-09T14:36:03;100628.72;;;19.97;74.01
59104;BME280;51449;51.676;5.812;2022-09-09T14:38:29;100617.16;;;19.95;73.31
59104;BME280;51449;51.676;5.812;2022-09-09T14:40:55;100622.75;;;19.91;73.52
59104;BME280;51449;51.676;5.812;2022-09-09T14:43:17;100621.53;;;19.92;73.61
59104;BME280;51449;51.676;5.812;2022-09-09T14:45:39;100613.97;;;20.00;73.97
59104;BME280;51449;51.676;5.812;2022-09-09T14:48:01;100619.13;;;20.08;73.88
59104;BME280;51449;51.676;5.812;2022-09-09T14:50:24;100623.91;;;20.12;73.43
59104;BME280;51449;51.676;5.812;2022-09-09T14:52:47;100618.69;;;20.14;73.58
59104;BME280;51449;51.676;5.812;2022-09-09T14:55:09;100612.72;;;20.15;73.42
59104;BME280;51449;51.676;5.812;2022-09-09T14:57:31;100618.69;;;20.14;72.09
59104;BME280;51449;51.676;5.812;2022-09-09T14:59:53;100607.50;;;20.14;72.21